Time;durP1;ratioP1;P1;durP2;ratioP2;P2;SDS_P1;SDS_P2;PMS_P1;PMS_P2;Temp;Humidity;BMP_temperature;BMP_pressure;BME280_temperature;BME280_humidity;BME280_pressure;Samples;Min_cycle;Max_cycle;Signal;HPM_P1;HPM_P2
2023/12/11 00:01:58;;;;;;;2.80;0.90;;;12.80;99.90;;;;;;5043081;28;20629;-61
2023/12/11 00:04:25;;;;;;;1.77;0.50;;;12.90;99.90;;;;;;5040988;28;20239;-61
2023/12/11 00:06:52;;;;;;;0.93;0.60;;;12.80;99.90;;;;;;5039427;28;20237;-61
2023/12/11 00:09:20;;;;;;;2.03;0.80;;;12.80;99.90;;;;;;5040372;28;20213;-60
2023/12/11 00:11:46;;;;;;;1.07;0.57;;;12.80;99.90;;;;;;5042198;28;20201;-60
2023/12/11 00:14:13;;;;;;;1.97;0.93;;;12.80;99.90;;;;;;5042550;28;20698;-61
2023/12/11 00:16:40;;;;;;;1.50;0.83;;;12.80;99.90;;;;;;5039264;28;20280;-60
2023/12/11 00:19:07;;;;;;;1.03;0.63;;;12.80;99.90;;;;;;5039505;28;20206;-61
2023/12/11 00:21:34;;;;;;;1.37;0.90;;;12.80;99.90;;;;;;5042327;28;20230;-61
2023/12/11 00:24:01;;;;;;;0.60;0.50;;;12.80;99.90;;;;;;5043300;28;20205;-61
2023/12/11 00:26:29;;;;;;;1.50;0.90;;;12.80;99.90;;;;;;5040521;28;20279;-61
2023/12/11 00:28:55;;;;;;;1.47;1.00;;;12.90;99.90;;;;;;5039426;28;20267;-61
2023/12/11 00:31:22;;;;;;;2.27;1.03;;;12.90;99.90;;;;;;5040543;28;20210;-61
2023/12/11 00:33:49;;;;;;;0.97;0.87;;;12.80;99.90;;;;;;5042768;28;20205;-62
2023/12/11 00:36:15;;;;;;;2.40;0.70;;;12.80;99.90;;;;;;5042020;28;20776;-62
2023/12/11 00:38:42;;;;;;;1.87;0.70;;;12.70;99.90;;;;;;5039288;28;20198;-61
2023/12/11 00:41:09;;;;;;;1.40;0.60;;;12.70;99.90;;;;;;5039267;28;20209;-61
2023/12/11 00:43:37;;;;;;;1.10;0.80;;;12.80;99.90;;;;;;5041905;28;20201;-61
2023/12/11 00:46:03;;;;;;;1.43;0.67;;;12.80;99.90;;;;;;5042709;28;20230;-62
2023/12/11 00:48:30;;;;;;;2.27;1.00;;;12.80;99.90;;;;;;5039650;28;20213;-61
2023/12/11 00:50:57;;;;;;;6.47;2.80;;;12.80;99.90;;;;;;5039129;28;20206;-62
2023/12/11 00:53:24;;;;;;;5.10;1.30;;;12.80;99.90;;;;;;5040377;28;20206;-61
2023/12/11 00:55:50;;;;;;;2.60;0.60;;;12.80;99.90;;;;;;5042304;28;20604;-61
2023/12/11 00:58:17;;;;;;;1.13;0.63;;;12.80;99.90;;;;;;5041623;28;20628;-61
2023/12/11 01:01:04;;;;;;;0.57;0.50;;;12.80;99.90;;;;;;5039155;28;20210;-62
2023/12/11 01:03:31;;;;;;;2.47;0.60;;;12.80;99.90;;;;;;5041259;28;20595;-62
2023/12/11 01:05:57;;;;;;;1.07;0.70;;;12.80;99.90;;;;;;5042556;28;20290;-61
2023/12/11 01:08:27;;;;;;;1.97;0.60;;;12.80;99.90;;;;;;5040837;28;20206;-61
2023/12/11 01:10:54;;;;;;;1.20;0.50;;;12.70;99.90;;;;;;5039133;28;20264;-61
2023/12/11 01:13:21;;;;;;;1.53;0.50;;;12.70;99.90;;;;;;5039768;28;20639;-61
2023/12/11 01:15:49;;;;;;;1.03;0.50;;;12.60;99.90;;;;;;5042209;28;20255;-61
2023/12/11 01:18:15;;;;;;;1.23;0.63;;;12.70;99.90;;;;;;5041689;28;20206;-61
2023/12/11 01:20:42;;;;;;;1.13;0.57;;;12.70;99.90;;;;;;5038876;28;20297;-61
2023/12/11 01:23:09;;;;;;;1.87;0.60;;;12.80;99.90;;;;;;5039637;28;20210;-62
2023/12/11 01:25:36;;;;;;;0.60;0.40;;;12.80;99.90;;;;;;5045553;28;20287;-61
2023/12/11 01:28:03;;;;;;;0.83;0.57;;;12.80;99.90;;;;;;5045286;28;20311;-61
2023/12/11 01:30:29;;;;;;;1.03;0.47;;;12.80;99.90;;;;;;5043569;28;20213;-61
2023/12/11 01:32:57;;;;;;;0.63;0.40;;;12.80;99.90;;;;;;5042375;28;20202;-63
2023/12/11 01:35:24;;;;;;;1.07;0.30;;;12.90;99.90;;;;;;5043483;28;20619;-61
2023/12/11 01:37:51;;;;;;;3.03;0.40;;;12.90;99.90;;;;;;5045619;28;20226;-60
2023/12/11 01:40:17;;;;;;;1.33;0.40;;;12.80;99.90;;;;;;5045047;28;20209;-61
2023/12/11 01:42:44;;;;;;;1.23;0.50;;;12.80;99.90;;;;;;5041937;28;20206;-61
2023/12/11 01:45:11;;;;;;;1.47;0.40;;;12.70;99.90;;;;;;5041893;28;20613;-61
2023/12/11 01:47:37;;;;;;;0.90;0.60;;;12.60;99.90;;;;;;5045055;28;20308;-61
2023/12/11 01:50:08;;;;;;;0.80;0.33;;;12.60;99.90;;;;;;5045309;28;20590;-61
2023/12/11 01:52:35;;;;;;;2.10;0.80;;;12.60;99.90;;;;;;5024812;28;20209;-61
2023/12/11 01:55:02;;;;;;;1.03;0.43;;;12.60;99.90;;;;;;5041637;28;20206;-61
2023/12/11 01:57:29;;;;;;;1.13;0.63;;;12.60;99.90;;;;;;5043302;28;20238;-61
2023/12/11 01:59:56;;;;;;;1.33;0.57;;;12.60;99.90;;;;;;5044928;28;20213;-61
2023/12/11 02:02:23;;;;;;;0.40;0.30;;;12.60;99.90;;;;;;5043894;28;20213;-60
2023/12/11 02:04:53;;;;;;;1.53;0.50;;;12.60;99.90;;;;;;5041654;28;20229;-61
2023/12/11 02:07:21;;;;;;;1.07;0.57;;;12.60;99.90;;;;;;5042100;28;20875;-60
2023/12/11 02:09:48;;;;;;;1.57;0.57;;;12.60;99.90;;;;;;5044723;28;20202;-62
2023/12/11 02:12:15;;;;;;;1.33;0.30;;;12.60;99.90;;;;;;5045116;28;20201;-60
2023/12/11 02:14:42;;;;;;;1.43;0.60;;;12.50;99.90;;;;;;5045193;28;20209;-63
2023/12/11 02:17:09;;;;;;;0.57;0.47;;;12.40;99.90;;;;;;5044934;28;20230;-61
2023/12/11 02:19:36;;;;;;;1.13;0.67;;;12.30;99.90;;;;;;5041814;28;20237;-61
2023/12/11 02:22:03;;;;;;;1.27;0.53;;;12.20;99.90;;;;;;5041319;28;20628;-61
2023/12/11 02:24:34;;;;;;;1.00;0.53;;;12.20;99.90;;;;;;5042826;28;20207;-61
2023/12/11 02:27:03;;;;;;;0.93;0.43;;;12.10;99.90;;;;;;5044846;28;20250;-61
2023/12/11 02:29:30;;;;;;;0.53;0.30;;;12.20;99.90;;;;;;5042671;28;20236;-62
2023/12/11 02:31:56;;;;;;;0.70;0.40;;;12.10;99.90;;;;;;5041427;28;20202;-61
2023/12/11 02:34:23;;;;;;;2.03;0.50;;;12.10;99.90;;;;;;5041272;28;20256;-61
2023/12/11 02:36:50;;;;;;;0.60;0.40;;;12.00;99.90;;;;;;5044776;28;20222;-61
2023/12/11 02:39:16;;;;;;;1.53;0.60;;;11.90;99.90;;;;;;5044630;28;20206;-61
2023/12/11 02:41:43;;;;;;;0.63;0.30;;;11.90;99.90;;;;;;5045113;28;20226;-61
2023/12/11 02:44:11;;;;;;;0.77;0.50;;;12.00;99.90;;;;;;5044708;28;20206;-62
2023/12/11 02:46:39;;;;;;;0.80;0.50;;;12.10;99.90;;;;;;5041420;28;20222;-61
2023/12/11 02:49:05;;;;;;;0.33;0.30;;;12.20;99.90;;;;;;5041322;28;20393;-61
2023/12/11 02:51:32;;;;;;;1.87;0.40;;;12.30;99.90;;;;;;5043112;28;20218;-61
2023/12/11 02:53:59;;;;;;;0.90;0.50;;;12.30;99.90;;;;;;5044410;28;20632;-61
2023/12/11 02:56:25;;;;;;;0.87;0.50;;;12.30;99.90;;;;;;5043123;28;20224;-61
2023/12/11 02:58:52;;;;;;;0.57;0.40;;;12.20;99.90;;;;;;5040709;28;20206;-61
2023/12/11 03:01:20;;;;;;;0.60;0.53;;;12.20;99.90;;;;;;5041021;28;20206;-61
2023/12/11 03:03:46;;;;;;;1.23;0.90;;;12.30;99.90;;;;;;5044419;28;20209;-61
2023/12/11 03:06:18;;;;;;;1.87;0.53;;;12.30;99.90;;;;;;5044179;28;20225;-61
2023/12/11 03:08:44;;;;;;;0.77;0.30;;;12.40;99.90;;;;;;5044230;28;20752;-61
2023/12/11 03:11:11;;;;;;;0.20;0.20;;;12.40;99.90;;;;;;5044084;28;20206;-61
2023/12/11 03:13:38;;;;;;;0.87;0.40;;;12.40;99.90;;;;;;5041320;28;20590;-61
2023/12/11 03:16:05;;;;;;;1.47;0.30;;;12.60;99.90;;;;;;5040382;28;20742;-61
2023/12/11 03:18:33;;;;;;;1.20;0.47;;;12.70;99.90;;;;;;5042056;28;20214;-62
2023/12/11 03:21:00;;;;;;;0.70;0.30;;;12.80;99.90;;;;;;5043945;28;20210;-61
2023/12/11 03:23:26;;;;;;;1.70;0.40;;;12.90;99.90;;;;;;5042536;28;20201;-62
2023/12/11 03:25:53;;;;;;;0.60;0.30;;;12.90;99.90;;;;;;5040084;28;20230;-61
2023/12/11 03:28:20;;;;;;;1.37;0.30;;;12.90;99.90;;;;;;5040273;28;20264;-61
2023/12/11 03:30:46;;;;;;;0.30;0.20;;;13.00;99.90;;;;;;5043562;28;20202;-62
2023/12/11 03:33:13;;;;;;;0.60;0.30;;;13.10;99.90;;;;;;5043337;28;20214;-61
2023/12/11 03:35:41;;;;;;;1.53;0.23;;;13.00;99.90;;;;;;5040470;28;20194;-61
2023/12/11 03:38:08;;;;;;;0.40;0.30;;;13.00;99.90;;;;;;5039985;28;20213;-61
2023/12/11 03:40:35;;;;;;;0.43;0.20;;;13.00;99.90;;;;;;5042726;28;20210;-61
2023/12/11 03:43:01;;;;;;;0.40;0.20;;;13.00;99.90;;;;;;5043793;28;20714;-61
2023/12/11 03:45:28;;;;;;;0.53;0.40;;;13.00;99.90;;;;;;5041797;28;20222;-61
2023/12/11 03:47:55;;;;;;;0.83;0.60;;;12.90;99.90;;;;;;5039818;28;20218;-61
2023/12/11 03:50:21;;;;;;;0.87;0.40;;;12.90;99.90;;;;;;5039931;28;20218;-61
2023/12/11 03:52:49;;;;;;;0.30;0.30;;;12.90;99.90;;;;;;5043113;28;20202;-61
2023/12/11 03:55:16;;;;;;;0.97;0.30;;;12.90;99.90;;;;;;5043154;28;20270;-61
2023/12/11 03:57:42;;;;;;;0.63;0.53;;;12.80;99.90;;;;;;5039495;28;20304;-61
2023/12/11 04:00:10;;;;;;;0.63;0.20;;;12.90;99.90;;;;;;5039356;28;20606;-61
2023/12/11 04:02:37;;;;;;;0.23;0.10;;;12.90;99.90;;;;;;5042234;28;20633;-61
2023/12/11 04:05:04;;;;;;;0.57;0.10;;;12.90;99.90;;;;;;5043126;28;20229;-61
2023/12/11 04:07:31;;;;;;;0.30;0.20;;;13.00;99.90;;;;;;5041180;28;20710;-61
2023/12/11 04:09:59;;;;;;;0.33;0.27;;;12.90;99.90;;;;;;5039452;28;20213;-61
2023/12/11 04:12:26;;;;;;;4.23;3.83;;;13.00;99.90;;;;;;5040361;28;20214;-61
2023/12/11 04:14:52;;;;;;;5.10;4.60;;;12.90;99.90;;;;;;5042619;28;20678;-61
2023/12/11 04:17:19;;;;;;;3.50;3.03;;;12.90;99.90;;;;;;5042834;28;20272;-61
2023/12/11 04:19:46;;;;;;;0.83;0.37;;;12.90;99.90;;;;;;5042744;28;20202;-62
2023/12/11 04:22:12;;;;;;;0.83;0.40;;;12.90;99.90;;;;;;5042639;28;20563;-61
2023/12/11 04:24:39;;;;;;;0.63;0.50;;;12.90;99.90;;;;;;5040042;28;20205;-61
2023/12/11 04:27:07;;;;;;;0.87;0.50;;;12.90;99.90;;;;;;5039592;28;21025;-61
2023/12/11 04:29:34;;;;;;;0.20;0.20;;;12.80;99.90;;;;;;5040946;28;20210;-61
2023/12/11 04:32:00;;;;;;;0.27;0.20;;;12.70;99.90;;;;;;5042536;28;20686;-61
2023/12/11 04:34:27;;;;;;;0.70;0.30;;;12.60;99.90;;;;;;5041576;28;20698;-60
2023/12/11 04:36:54;;;;;;;0.67;0.30;;;12.50;99.90;;;;;;5039167;28;20229;-61
2023/12/11 04:39:20;;;;;;;1.23;0.50;;;12.30;99.90;;;;;;5039039;28;20225;-61
2023/12/11 04:41:47;;;;;;;0.70;0.50;;;12.20;99.90;;;;;;5042459;28;20198;-62
2023/12/11 04:44:15;;;;;;;0.60;0.47;;;12.10;99.90;;;;;;5042693;28;20210;-62
2023/12/11 04:46:42;;;;;;;0.80;0.67;;;12.00;99.90;;;;;;5039496;28;20605;-62
2023/12/11 04:49:08;;;;;;;0.20;0.20;;;11.90;99.90;;;;;;5038976;28;20750;-62
2023/12/11 04:51:35;;;;;;;0.90;0.50;;;11.90;99.90;;;;;;5041015;28;20628;-62
2023/12/11 04:54:01;;;;;;;1.10;0.50;;;11.80;99.90;;;;;;5042932;28;20632;-61
2023/12/11 04:56:28;;;;;;;0.93;0.40;;;11.60;99.90;;;;;;5041174;28;20271;-61
2023/12/11 04:58:55;;;;;;;0.80;0.50;;;11.50;99.90;;;;;;5041692;28;20210;-62
2023/12/11 05:01:25;;;;;;;0.83;0.60;;;11.40;99.90;;;;;;5043366;28;20672;-61
2023/12/11 05:03:52;;;;;;;1.47;1.00;;;11.30;99.90;;;;;;5046915;28;20212;-61
2023/12/11 05:06:19;;;;;;;0.97;0.77;;;11.20;99.90;;;;;;5046254;28;20232;-62
2023/12/11 05:08:46;;;;;;;0.70;0.30;;;11.20;99.90;;;;;;5042910;28;20297;-62
2023/12/11 05:11:12;;;;;;;0.63;0.47;;;11.10;99.90;;;;;;5042758;28;20319;-62
2023/12/11 05:13:39;;;;;;;0.73;0.40;;;11.00;99.90;;;;;;5045152;28;20676;-61
2023/12/11 05:16:06;;;;;;;1.43;0.40;;;11.00;99.90;;;;;;5046247;28;20221;-62
2023/12/11 05:18:35;;;;;;;0.80;0.40;;;11.00;99.90;;;;;;5044357;28;20220;-62
2023/12/11 05:21:06;;;;;;;1.10;0.50;;;10.90;99.90;;;;;;5043335;28;20226;-62
2023/12/11 05:23:33;;;;;;;1.13;0.50;;;10.90;99.90;;;;;;5045027;28;20293;-62
2023/12/11 05:26:00;;;;;;;1.27;1.00;;;10.90;99.90;;;;;;5046799;28;20230;-62
2023/12/11 05:28:26;;;;;;;2.00;1.50;;;10.90;99.90;;;;;;5045419;28;20229;-62
2023/12/11 05:30:53;;;;;;;2.20;0.60;;;10.80;99.90;;;;;;5042713;28;20209;-62
2023/12/11 05:33:20;;;;;;;2.67;0.40;;;10.80;99.90;;;;;;5042266;28;20216;-62
2023/12/11 05:35:48;;;;;;;2.27;1.20;;;10.80;99.90;;;;;;5045774;28;20202;-62
2023/12/11 05:38:14;;;;;;;1.63;0.50;;;10.80;99.90;;;;;;5045438;28;20201;-63
2023/12/11 05:40:41;;;;;;;0.63;0.47;;;10.80;99.90;;;;;;5043078;28;20210;-62
2023/12/11 05:43:08;;;;;;;1.70;0.60;;;10.70;99.90;;;;;;5042308;28;20202;-63
2023/12/11 05:45:34;;;;;;;0.73;0.60;;;10.70;99.90;;;;;;5043653;28;20213;-62
2023/12/11 05:48:01;;;;;;;0.77;0.40;;;10.80;99.90;;;;;;5045635;28;20268;-63
2023/12/11 05:50:28;;;;;;;2.00;0.93;;;10.70;99.90;;;;;;5044513;28;20210;-62
2023/12/11 05:52:56;;;;;;;0.97;0.50;;;10.70;99.90;;;;;;5042125;28;20211;-62
2023/12/11 05:55:22;;;;;;;1.53;0.67;;;10.80;99.90;;;;;;5042302;28;20214;-62
2023/12/11 05:57:49;;;;;;;0.73;0.50;;;10.80;99.90;;;;;;5045649;28;20230;-61
2023/12/11 06:00:17;;;;;;;1.90;0.50;;;10.80;99.90;;;;;;5045274;28;20569;-62
2023/12/11 06:02:43;;;;;;;1.20;0.47;;;10.80;99.90;;;;;;5042275;28;20214;-62
2023/12/11 06:05:10;;;;;;;0.80;0.50;;;10.80;99.90;;;;;;5041518;28;20214;-62
2023/12/11 06:07:36;;;;;;;0.70;0.50;;;10.90;99.90;;;;;;5043575;28;20228;-62
2023/12/11 06:10:06;;;;;;;1.10;0.60;;;10.90;99.90;;;;;;5044984;28;20240;-62
2023/12/11 06:12:33;;;;;;;0.80;0.53;;;10.90;99.90;;;;;;5043427;28;20219;-61
2023/12/11 06:15:00;;;;;;;1.57;0.50;;;10.80;99.90;;;;;;5041674;28;20316;-61
2023/12/11 06:17:26;;;;;;;2.17;1.00;;;10.90;99.90;;;;;;5041808;28;20222;-62
2023/12/11 06:19:53;;;;;;;1.80;0.90;;;10.90;99.90;;;;;;5044694;28;20233;-62
2023/12/11 06:22:20;;;;;;;0.73;0.50;;;10.90;99.90;;;;;;5044980;28;20209;-61
2023/12/11 06:24:45;;;;;;;1.17;0.80;;;11.00;99.90;;;;;;5041355;28;20205;-61
2023/12/11 06:27:13;;;;;;;2.13;0.90;;;11.00;99.90;;;;;;5048049;28;20225;-60
2023/12/11 06:29:40;;;;;;;1.03;0.47;;;11.00;99.90;;;;;;5042214;28;20202;-62
2023/12/11 06:32:08;;;;;;;1.63;0.73;;;11.00;99.90;;;;;;5041157;28;20218;-61
2023/12/11 06:34:35;;;;;;;0.70;0.50;;;11.00;99.90;;;;;;5042538;28;20224;-61
2023/12/11 06:37:02;;;;;;;0.77;0.40;;;11.10;99.90;;;;;;5044737;28;20237;-61
2023/12/11 06:39:28;;;;;;;1.17;0.60;;;11.10;99.90;;;;;;5043997;28;20752;-61
2023/12/11 06:41:55;;;;;;;1.03;0.63;;;11.00;99.90;;;;;;5041089;28;20214;-61
2023/12/11 06:44:23;;;;;;;1.53;0.60;;;11.00;99.90;;;;;;5041099;28;20211;-62
2023/12/11 06:46:50;;;;;;;2.00;0.73;;;11.10;99.90;;;;;;5044200;28;20228;-62
2023/12/11 06:49:16;;;;;;;1.27;0.70;;;11.00;99.90;;;;;;5044466;28;20239;-61
2023/12/11 06:51:43;;;;;;;1.57;0.90;;;11.00;99.90;;;;;;5041920;28;20209;-62
2023/12/11 06:54:10;;;;;;;3.80;2.70;;;11.00;99.90;;;;;;5041157;28;20206;-62
2023/12/11 06:56:39;;;;;;;1.40;0.90;;;11.00;99.90;;;;;;5042363;28;20230;-62
2023/12/11 06:59:05;;;;;;;0.77;0.53;;;11.10;99.90;;;;;;5043997;28;20205;-61
2023/12/11 07:01:35;;;;;;;1.53;0.87;;;11.10;99.90;;;;;;5042802;28;20565;-60
2023/12/11 07:04:03;;;;;;;0.77;0.50;;;11.10;99.90;;;;;;5040976;28;20206;-61
2023/12/11 07:06:30;;;;;;;0.90;0.60;;;11.20;99.90;;;;;;5041192;28;20237;-61
2023/12/11 07:08:57;;;;;;;1.00;0.70;;;11.30;99.90;;;;;;5045386;28;20206;-62
2023/12/11 07:11:24;;;;;;;3.53;0.93;;;11.40;99.90;;;;;;5043745;28;20624;-59
2023/12/11 07:13:51;;;;;;;1.47;0.70;;;11.50;99.90;;;;;;5043969;28;20309;-60
2023/12/11 07:16:18;;;;;;;0.80;0.70;;;11.60;99.90;;;;;;5043642;28;20669;-61
2023/12/11 07:18:46;;;;;;;1.77;0.83;;;11.60;99.90;;;;;;5040648;28;20209;-60
2023/12/11 07:21:13;;;;;;;1.97;0.90;;;11.60;99.90;;;;;;5039533;28;20226;-60
2023/12/11 07:23:39;;;;;;;3.37;2.60;;;11.70;99.90;;;;;;5042081;28;20218;-59
2023/12/11 07:26:08;;;;;;;4.73;2.40;;;11.70;99.90;;;;;;5043036;28;20226;-60
2023/12/11 07:28:35;;;;;;;2.50;1.00;;;11.70;99.90;;;;;;5041789;28;20296;-59
2023/12/11 07:31:03;;;;;;;2.57;0.80;;;11.70;99.90;;;;;;5040566;28;20213;-59
2023/12/11 07:33:30;;;;;;;1.47;0.90;;;11.80;99.90;;;;;;5040301;28;20206;-60
2023/12/11 07:35:57;;;;;;;3.40;1.20;;;11.80;99.90;;;;;;5043163;28;20721;-60
2023/12/11 07:38:25;;;;;;;0.90;0.60;;;11.80;99.90;;;;;;5043138;28;20213;-62
2023/12/11 07:40:52;;;;;;;0.80;0.60;;;11.90;99.90;;;;;;5043353;28;20210;-61
2023/12/11 07:43:19;;;;;;;20.23;3.00;;;11.90;99.90;;;;;;5043227;28;20213;-60
2023/12/11 07:45:46;;;;;;;4.27;1.10;;;12.00;99.90;;;;;;5039958;28;20210;-60
2023/12/11 07:48:12;;;;;;;12.07;1.90;;;12.00;99.90;;;;;;5039517;28;20273;-60
2023/12/11 07:50:40;;;;;;;9.00;1.80;;;12.00;99.90;;;;;;5041707;28;20315;-60
2023/12/11 07:53:08;;;;;;;2.57;1.23;;;12.00;99.90;;;;;;5042943;28;20391;-60
2023/12/11 07:55:35;;;;;;;6.57;1.50;;;12.10;99.90;;;;;;5041467;28;20213;-60
2023/12/11 07:58:02;;;;;;;5.90;1.20;;;12.10;99.90;;;;;;5039276;28;20285;-60
2023/12/11 08:00:29;;;;;;;1.80;1.40;;;12.10;99.90;;;;;;5039913;28;20264;-59
2023/12/11 08:02:56;;;;;;;8.97;2.80;;;12.10;99.90;;;;;;5042986;28;20236;-60
2023/12/11 08:05:23;;;;;;;5.70;3.30;;;12.10;99.90;;;;;;5043444;28;20533;-60
2023/12/11 08:07:50;;;;;;;2.77;1.70;;;12.10;99.90;;;;;;5039199;28;20226;-60
2023/12/11 08:10:18;;;;;;;13.17;2.60;;;12.10;99.90;;;;;;5039116;28;20256;-58
2023/12/11 08:12:49;;;;;;;6.73;1.60;;;12.00;99.90;;;;;;5041952;28;20214;-59
2023/12/11 08:15:16;;;;;;;3.40;1.27;;;12.10;99.90;;;;;;5042664;28;20217;-60
2023/12/11 08:17:43;;;;;;;1.63;1.10;;;12.20;99.90;;;;;;5040407;28;20225;-60
2023/12/11 08:20:11;;;;;;;1.93;0.90;;;12.30;99.90;;;;;;5038873;28;20641;-60
2023/12/11 08:22:37;;;;;;;3.97;2.77;;;12.50;99.90;;;;;;5040141;28;20417;-60
2023/12/11 08:25:04;;;;;;;3.13;0.90;;;12.70;99.90;;;;;;5042998;28;20216;-59
2023/12/11 08:27:32;;;;;;;17.43;2.30;;;12.80;99.90;;;;;;5041708;28;20225;-61
2023/12/11 08:29:59;;;;;;;4.20;1.43;;;12.90;99.90;;;;;;5039094;28;20217;-60
2023/12/11 08:32:26;;;;;;;2.13;0.90;;;12.90;99.90;;;;;;5038269;28;20264;-59
2023/12/11 08:34:52;;;;;;;6.93;1.17;;;13.00;99.90;;;;;;5039048;28;20211;-59
2023/12/11 08:37:19;;;;;;;8.43;1.87;;;13.10;99.90;;;;;;5038732;28;20226;-59
2023/12/11 08:39:46;;;;;;;10.07;3.17;;;13.20;99.90;;;;;;5041273;28;20271;-59
2023/12/11 08:42:12;;;;;;;19.63;3.03;;;13.30;99.90;;;;;;5042372;28;20206;-59
2023/12/11 08:44:40;;;;;;;2.70;1.13;;;13.30;99.90;;;;;;5040827;28;20251;-58
2023/12/11 08:47:07;;;;;;;11.33;1.80;;;13.40;99.90;;;;;;5038800;28;20248;-59
2023/12/11 08:49:33;;;;;;;3.30;0.93;;;13.50;99.90;;;;;;5039516;28;20210;-59
2023/12/11 08:52:02;;;;;;;38.07;5.00;;;13.50;99.90;;;;;;5042547;28;20590;-59
2023/12/11 08:54:28;;;;;;;5.03;1.60;;;13.60;99.90;;;;;;5041979;28;20214;-59
2023/12/11 08:56:55;;;;;;;2.77;0.97;;;13.60;99.90;;;;;;5038791;28;20229;-59
2023/12/11 08:59:21;;;;;;;22.37;2.43;;;13.60;99.90;;;;;;5038542;28;20206;-59
2023/12/11 09:01:49;;;;;;;5.17;2.23;;;13.60;99.90;;;;;;5041547;28;20241;-59
2023/12/11 09:04:16;;;;;;;1.77;0.60;;;13.70;99.90;;;;;;5042091;28;20588;-59
2023/12/11 09:06:43;;;;;;;4.03;0.80;;;13.80;99.90;;;;;;5039697;28;20232;-59
2023/12/11 09:09:09;;;;;;;2.03;0.80;;;13.90;99.90;;;;;;5038964;28;20257;-63
2023/12/11 09:11:36;;;;;;;44.20;4.70;;;14.10;99.90;;;;;;5039458;28;20209;-62
2023/12/11 09:14:03;;;;;;;3.37;1.00;;;14.10;99.90;;;;;;5042215;28;20206;-61
2023/12/11 09:16:29;;;;;;;1.20;0.50;;;14.10;99.90;;;;;;5041743;28;20237;-61
2023/12/11 09:18:57;;;;;;;2.30;1.57;;;14.10;99.90;;;;;;5038413;28;20202;-62
2023/12/11 09:21:24;;;;;;;2.13;0.93;;;14.10;99.90;;;;;;5038584;28;20214;-62
2023/12/11 09:23:51;;;;;;;13.60;2.17;;;14.10;99.90;;;;;;5041678;28;20292;-62
2023/12/11 09:26:18;;;;;;;2.00;0.97;;;14.20;99.90;;;;;;5038961;28;20616;-62
2023/12/11 09:28:46;;;;;;;8.17;1.30;;;14.10;99.90;;;;;;5048737;28;20252;-62
2023/12/11 09:31:13;;;;;;;2.97;1.20;;;14.10;99.90;;;;;;5050691;28;20648;-63
2023/12/11 09:33:40;;;;;;;3.77;0.90;;;14.10;99.90;;;;;;5049669;28;20341;-63
2023/12/11 09:36:08;;;;;;;8.17;1.50;;;14.10;99.90;;;;;;5049606;28;20740;-64
2023/12/11 09:38:35;;;;;;;3.07;0.93;;;14.10;99.90;;;;;;5049669;28;20578;-62
2023/12/11 09:41:03;;;;;;;34.00;4.40;;;14.00;99.90;;;;;;5050118;28;20210;-62
2023/12/11 09:43:30;;;;;;;1.90;0.80;;;14.00;99.90;;;;;;5049880;28;20259;-62
2023/12/11 09:45:59;;;;;;;25.70;3.20;;;14.00;99.90;;;;;;5053359;28;20671;-62
2023/12/11 09:48:26;;;;;;;2.80;0.97;;;14.10;99.90;;;;;;5053642;28;20650;-61
2023/12/11 09:50:53;;;;;;;3.77;1.30;;;13.90;99.90;;;;;;5053514;28;20213;-61
2023/12/11 09:53:21;;;;;;;1.43;0.80;;;13.90;99.90;;;;;;5053099;28;20209;-61
2023/12/11 09:55:48;;;;;;;3.53;1.00;;;13.90;99.90;;;;;;5050981;28;20213;-61
2023/12/11 09:58:16;;;;;;;4.83;1.10;;;14.00;99.90;;;;;;5053029;28;20312;-62
2023/12/11 10:00:43;;;;;;;1.57;0.90;;;14.10;99.90;;;;;;5052800;28;20663;-61
2023/12/11 10:03:09;;;;;;;2.83;1.07;;;14.30;99.90;;;;;;5053564;28;20221;-62
2023/12/11 10:05:37;;;;;;;2.10;0.87;;;14.40;99.90;;;;;;5053147;28;20285;-61
2023/12/11 10:08:04;;;;;;;1.73;0.80;;;14.60;99.90;;;;;;5052753;28;20222;-59
2023/12/11 10:10:33;;;;;;;2.37;0.80;;;14.80;99.90;;;;;;5052966;28;20231;-58
2023/12/11 10:13:01;;;;;;;2.37;1.07;;;15.10;99.90;;;;;;5052460;28;20308;-58
2023/12/11 10:15:29;;;;;;;2.33;1.10;;;15.40;99.90;;;;;;5053097;28;20309;-61
2023/12/11 10:18:14;;;;;;;4.63;0.97;;;15.60;99.90;;;;;;5044588;28;20202;-58
2023/12/11 10:20:42;;;;;;;3.65;0.80;;;15.60;99.90;;;;;;5052392;28;20206;-60
2023/12/11 10:23:14;;;;;;;4.75;2.38;;;15.60;99.90;;;;;;5053078;28;20207;-59
2023/12/11 10:25:44;;;;;;;6.47;3.23;;;15.60;99.90;;;;;;5051404;28;20206;-59
2023/12/11 10:28:12;;;;;;;2.73;1.43;;;15.50;99.90;;;;;;5076413;22;20781;-52
2023/12/11 10:30:55;;;;;;;4.70;0.90;;;15.40;99.90;;;;;;5052863;28;20206;-52
2023/12/11 10:33:25;;;;;;;1.55;0.80;;;15.40;99.90;;;;;;5052740;28;20201;-52
2023/12/11 10:35:52;;;;;;;1.67;1.10;;;15.50;99.90;;;;;;5052724;28;20214;-53
2023/12/11 10:38:23;;;;;;;2.28;0.90;;;15.60;99.90;;;;;;5052328;28;20229;-52
2023/12/11 10:40:51;;;;;;;4.88;0.90;;;15.70;99.90;;;;;;5052625;28;20209;-52
2023/12/11 10:43:18;;;;;;;2.72;0.70;;;15.80;99.90;;;;;;5052779;28;20206;-51
2023/12/11 10:45:46;;;;;;;3.45;0.68;;;15.90;99.90;;;;;;5052846;28;20556;-55
2023/12/11 10:48:13;;;;;;;3.40;1.60;;;15.90;99.90;;;;;;5053638;28;20233;-57
2023/12/11 10:50:40;;;;;;;2.25;0.98;;;15.90;99.90;;;;;;5052466;28;20206;-55
2023/12/11 10:53:09;;;;;;;1.17;0.60;;;15.90;99.90;;;;;;5052621;28;20213;-52
2023/12/11 10:55:37;;;;;;;3.35;1.10;;;15.90;99.90;;;;;;5051579;28;20730;-54
2023/12/11 10:58:07;;;;;;;3.70;2.10;;;16.00;99.90;;;;;;5052101;28;20233;-55
2023/12/11 11:00:35;;;;;;;0.98;0.70;;;16.10;99.90;;;;;;5051877;28;20296;-54
2023/12/11 11:03:04;;;;;;;3.03;1.40;;;16.00;99.90;;;;;;5052347;28;20263;-53
2023/12/11 11:05:31;;;;;;;2.05;0.95;;;16.10;99.90;;;;;;5052485;28;20573;-52
2023/12/11 11:08:07;;;;;;;2.38;0.77;;;16.20;99.90;;;;;;5044028;28;20319;-53
2023/12/11 11:10:39;;;;;;;1.80;0.77;;;16.30;99.90;;;;;;5052165;28;20205;-53
2023/12/11 11:13:13;;;;;;;3.35;0.95;;;16.40;99.90;;;;;;5051876;28;20583;-53
2023/12/11 11:15:40;;;;;;;3.92;1.00;;;16.30;99.90;;;;;;5051485;28;20279;-52
2023/12/11 11:18:10;;;;;;;2.78;1.02;;;16.30;99.90;;;;;;5051819;28;20222;-52
2023/12/11 11:20:38;;;;;;;3.78;1.15;;;16.30;99.90;;;;;;5051594;28;20215;-53
2023/12/11 11:23:26;;;;;;;4.30;1.10;;;16.30;99.90;;;;;;5051568;28;20213;-53
2023/12/11 11:25:53;;;;;;;3.05;1.25;;;16.20;99.90;;;;;;5051036;28;20537;-53
2023/12/11 11:28:41;;;;;;;3.58;1.17;;;16.10;99.90;;;;;;5051166;28;20233;-53
2023/12/11 11:31:08;;;;;;;2.33;1.33;;;16.00;99.90;;;;;;5045026;28;20209;-53
2023/12/11 11:33:46;;;;;;;6.38;1.73;;;15.90;99.90;;;;;;5051362;28;20506;-53
2023/12/11 11:36:15;;;;;;;4.50;1.35;;;15.80;99.90;;;;;;5051342;28;20217;-52
2023/12/11 11:38:58;;;;;;;2.88;1.23;;;15.90;99.90;;;;;;5050506;28;20209;-52
2023/12/11 11:41:27;;;;;;;3.35;1.13;;;15.90;99.90;;;;;;5051444;28;20209;-52
2023/12/11 11:44:05;;;;;;;6.13;1.30;;;16.00;99.90;;;;;;5051267;28;20570;-53
2023/12/11 11:46:54;;;;;;;4.22;1.38;;;16.00;99.90;;;;;;5051180;28;20236;-54
2023/12/11 11:49:29;;;;;;;4.00;1.20;;;15.90;99.90;;;;;;5051402;28;20221;-53
2023/12/11 11:51:56;;;;;;;5.45;1.38;;;15.70;99.90;;;;;;5051568;28;20201;-56
2023/12/11 11:54:24;;;;;;;7.13;1.50;;;15.50;99.90;;;;;;5051716;28;20206;-52
2023/12/11 11:56:51;;;;;;;3.78;1.20;;;15.40;99.90;;;;;;5051086;28;20234;-52
2023/12/11 11:59:19;;;;;;;5.50;1.40;;;15.50;99.90;;;;;;5050760;28;20332;-53
2023/12/11 12:01:54;;;;;;;3.78;1.30;;;15.70;99.90;;;;;;5050826;28;20263;-52
2023/12/11 12:04:32;;;;;;;5.63;1.35;;;16.00;99.90;;;;;;5050973;28;20575;-53
2023/12/11 12:07:01;;;;;;;3.53;1.33;;;16.40;99.90;;;;;;5042772;28;20229;-54
2023/12/11 12:09:29;;;;;;;8.68;1.85;;;16.40;99.90;;;;;;5050649;28;20718;-56
2023/12/11 12:11:55;;;;;;;5.38;1.60;;;16.30;99.90;;;;;;5050267;28;20589;-53
2023/12/11 12:14:23;;;;;;;5.45;1.42;;;16.10;99.90;;;;;;5050817;28;20212;-52
2023/12/11 12:16:50;;;;;;;7.80;1.77;;;15.80;99.90;;;;;;5050697;28;20256;-56
2023/12/11 12:19:17;;;;;;;7.05;1.95;;;15.50;99.90;;;;;;5050770;28;20253;-54
2023/12/11 12:21:52;;;;;;;5.68;1.65;;;15.30;99.90;;;;;;5050384;28;20220;-53
2023/12/11 12:24:19;;;;;;;4.60;1.77;;;15.00;99.90;;;;;;5050555;28;20269;-56
2023/12/11 12:26:47;;;;;;;7.47;1.60;;;14.80;99.90;;;;;;5050106;28;20229;-53
2023/12/11 12:29:15;;;;;;;4.80;1.43;;;14.70;99.90;;;;;;5050838;28;20221;-53
2023/12/11 12:31:45;;;;;;;5.63;1.52;;;14.80;99.90;;;;;;5050596;28;20265;-53
2023/12/11 12:34:13;;;;;;;4.83;1.53;;;14.80;99.90;;;;;;5051194;28;20210;-53
2023/12/11 12:36:40;;;;;;;6.72;1.88;;;14.80;99.90;;;;;;5050357;28;20225;-53
2023/12/11 12:39:07;;;;;;;4.85;1.40;;;14.70;99.90;;;;;;5049729;28;20262;-58
2023/12/11 12:41:34;;;;;;;6.43;1.80;;;14.60;99.90;;;;;;5050906;28;20243;-54
2023/12/11 12:44:01;;;;;;;5.95;1.75;;;14.60;99.90;;;;;;5042548;28;20211;-54
2023/12/11 12:46:38;;;;;;;12.48;4.90;;;14.70;99.90;;;;;;5049983;28;20797;-56
2023/12/11 12:49:09;;;;;;;5.22;1.50;;;14.70;99.90;;;;;;5042978;28;20611;-55